sensor_id;sensor_type;location;lat;lon;timestamp;pressure;altitude;pressure_sealevel;temperature;humidity
28606;BME280;46498;49.968;7.754;2023-04-25T00:02:08;-18471.00;;;6.06;100.00
28606;BME280;46498;49.968;7.754;2023-04-25T00:07:09;-18470.00;;;6.04;100.00
28606;BME280;46498;49.968;7.754;2023-04-25T00:12:11;-18470.00;;;6.04;100.00
28606;BME280;46498;49.968;7.754;2023-04-25T00:17:12;-18470.00;;;6.04;100.00
28606;BME280;46498;49.968;7.754;2023-04-25T00:22:13;-18463.00;;;5.82;100.00
28606;BME280;46498;49.968;7.754;2023-04-25T00:27:14;-18464.00;;;5.86;100.00
28606;BME280;46498;49.968;7.754;2023-04-25T00:32:14;-18463.00;;;5.80;100.00
28606;BME280;46498;49.968;7.754;2023-04-25T00:37:15;-18462.00;;;5.80;100.00
28606;BME280;46498;49.968;7.754;2023-04-25T00:42:16;-18463.00;;;5.81;100.00
28606;BME280;46498;49.968;7.754;2023-04-25T00:47:17;-18461.00;;;5.76;100.00
28606;BME280;46498;49.968;7.754;2023-04-25T00:52:18;-18459.00;;;5.70;100.00
28606;BME280;46498;49.968;7.754;2023-04-25T00:57:20;-18457.00;;;5.63;100.00
28606;BME280;46498;49.968;7.754;2023-04-25T01:02:20;-18455.00;;;5.58;100.00
28606;BME280;46498;49.968;7.754;2023-04-25T01:07:22;-18454.00;;;5.55;100.00
28606;BME280;46498;49.968;7.754;2023-04-25T01:12:23;-18456.00;;;5.61;100.00
28606;BME280;46498;49.968;7.754;2023-04-25T01:17:24;-18455.00;;;5.58;100.00
28606;BME280;46498;49.968;7.754;2023-04-25T01:22:25;-18456.00;;;5.61;100.00
28606;BME280;46498;49.968;7.754;2023-04-25T01:27:26;-18456.00;;;5.61;100.00
28606;BME280;46498;49.968;7.754;2023-04-25T01:32:28;-18456.00;;;5.60;100.00
28606;BME280;46498;49.968;7.754;2023-04-25T01:37:29;-18455.00;;;5.57;100.00
28606;BME280;46498;49.968;7.754;2023-04-25T01:42:30;-18454.00;;;5.55;100.00
28606;BME280;46498;49.968;7.754;2023-04-25T01:47:31;-18455.00;;;5.56;100.00
28606;BME280;46498;49.968;7.754;2023-04-25T01:52:33;-18454.00;;;5.52;100.00
28606;BME280;46498;49.968;7.754;2023-04-25T01:57:38;-18454.00;;;5.52;100.00
28606;BME280;46498;49.968;7.754;2023-04-25T02:02:39;-18456.00;;;5.60;100.00
28606;BME280;46498;49.968;7.754;2023-04-25T02:07:58;-18453.00;;;5.51;100.00
28606;BME280;46498;49.968;7.754;2023-04-25T02:13:01;-18453.00;;;5.49;100.00
28606;BME280;46498;49.968;7.754;2023-04-25T02:18:21;-18451.00;;;5.44;100.00
28606;BME280;46498;49.968;7.754;2023-04-25T02:23:22;-18447.00;;;5.32;100.00
28606;BME280;46498;49.968;7.754;2023-04-25T02:28:23;-18449.00;;;5.39;100.00
28606;BME280;46498;49.968;7.754;2023-04-25T02:33:25;-18450.00;;;5.41;100.00
28606;BME280;46498;49.968;7.754;2023-04-25T02:38:26;-18448.00;;;5.36;100.00
28606;BME280;46498;49.968;7.754;2023-04-25T02:43:26;-18444.00;;;5.24;100.00
28606;BME280;46498;49.968;7.754;2023-04-25T02:48:27;-18446.00;;;5.28;100.00
28606;BME280;46498;49.968;7.754;2023-04-25T02:53:30;-18442.00;;;5.17;100.00
28606;BME280;46498;49.968;7.754;2023-04-25T02:58:31;-18440.00;;;5.10;100.00
28606;BME280;46498;49.968;7.754;2023-04-25T03:03:32;-18440.00;;;5.09;100.00
28606;BME280;46498;49.968;7.754;2023-04-25T03:08:32;-18439.00;;;5.08;100.00
28606;BME280;46498;49.968;7.754;2023-04-25T03:13:36;-18439.00;;;5.06;100.00
28606;BME280;46498;49.968;7.754;2023-04-25T03:18:37;-18434.00;;;4.92;100.00
28606;BME280;46498;49.968;7.754;2023-04-25T03:23:37;-18438.00;;;5.03;100.00
28606;BME280;46498;49.968;7.754;2023-04-25T03:28:42;-18435.00;;;4.93;100.00
28606;BME280;46498;49.968;7.754;2023-04-25T03:33:43;-18433.00;;;4.88;100.00
28606;BME280;46498;49.968;7.754;2023-04-25T03:38:44;-18433.00;;;4.87;100.00
28606;BME280;46498;49.968;7.754;2023-04-25T03:43:46;-18437.00;;;4.99;100.00
28606;BME280;46498;49.968;7.754;2023-04-25T03:48:47;-18438.00;;;5.05;100.00
28606;BME280;46498;49.968;7.754;2023-04-25T03:53:53;-18439.00;;;5.06;100.00
28606;BME280;46498;49.968;7.754;2023-04-25T03:59:23;-18432.00;;;4.85;100.00
28606;BME280;46498;49.968;7.754;2023-04-25T04:04:25;-18433.00;;;4.86;100.00
28606;BME280;46498;49.968;7.754;2023-04-25T04:09:27;-18434.00;;;4.89;100.00
28606;BME280;46498;49.968;7.754;2023-04-25T04:14:29;-18436.00;;;4.97;100.00
28606;BME280;46498;49.968;7.754;2023-04-25T04:19:30;-18437.00;;;5.00;100.00
28606;BME280;46498;49.968;7.754;2023-04-25T04:24:44;-18439.00;;;5.07;100.00
28606;BME280;46498;49.968;7.754;2023-04-25T04:29:50;-18442.00;;;5.17;100.00
28606;BME280;46498;49.968;7.754;2023-04-25T04:35:04;-18445.00;;;5.26;100.00
28606;BME280;46498;49.968;7.754;2023-04-25T04:40:07;-18446.00;;;5.29;100.00
28606;BME280;46498;49.968;7.754;2023-04-25T04:45:23;-18445.00;;;5.27;100.00
28606;BME280;46498;49.968;7.754;2023-04-25T04:50:43;-18447.00;;;5.32;100.00
28606;BME280;46498;49.968;7.754;2023-04-25T04:55:59;-18443.00;;;5.20;100.00
28606;BME280;46498;49.968;7.754;2023-04-25T05:02:22;-18441.00;;;5.13;100.00
28606;BME280;46498;49.968;7.754;2023-04-25T05:07:41;-18439.00;;;5.06;100.00
28606;BME280;46498;49.968;7.754;2023-04-25T05:13:00;-18440.00;;;5.09;100.00
28606;BME280;46498;49.968;7.754;2023-04-25T05:19:22;-18439.00;;;5.08;100.00
28606;BME280;46498;49.968;7.754;2023-04-25T05:25:58;-18441.00;;;5.11;100.00
28606;BME280;46498;49.968;7.754;2023-04-25T05:31:14;-18443.00;;;5.18;100.00
28606;BME280;46498;49.968;7.754;2023-04-25T05:36:29;-18436.00;;;4.98;100.00
28606;BME280;46498;49.968;7.754;2023-04-25T05:41:31;-18436.00;;;4.96;100.00
28606;BME280;46498;49.968;7.754;2023-04-25T05:46:36;-18440.00;;;5.10;100.00
28606;BME280;46498;49.968;7.754;2023-04-25T05:51:58;-18446.00;;;5.30;100.00
28606;BME280;46498;49.968;7.754;2023-04-25T05:57:25;-18446.00;;;5.30;100.00
28606;BME280;46498;49.968;7.754;2023-04-25T06:02:27;-18441.00;;;5.14;100.00
28606;BME280;46498;49.968;7.754;2023-04-25T06:07:29;-18442.00;;;5.15;100.00
28606;BME280;46498;49.968;7.754;2023-04-25T06:12:31;-18445.00;;;5.24;100.00
28606;BME280;46498;49.968;7.754;2023-04-25T06:17:33;-18460.00;;;5.71;100.00
28606;BME280;46498;49.968;7.754;2023-04-25T06:22:34;-18468.00;;;5.97;100.00
28606;BME280;46498;49.968;7.754;2023-04-25T06:27:36;-18469.00;;;5.99;100.00
28606;BME280;46498;49.968;7.754;2023-04-25T06:32:38;-18478.00;;;6.29;100.00
28606;BME280;46498;49.968;7.754;2023-04-25T06:37:40;-18490.00;;;6.66;100.00
28606;BME280;46498;49.968;7.754;2023-04-25T06:42:41;-18488.00;;;6.59;100.00
28606;BME280;46498;49.968;7.754;2023-04-25T06:48:28;-18478.00;;;6.30;100.00
28606;BME280;46498;49.968;7.754;2023-04-25T06:53:29;-18472.00;;;6.11;100.00
28606;BME280;46498;49.968;7.754;2023-04-25T06:58:33;-18468.00;;;5.97;100.00
28606;BME280;46498;49.968;7.754;2023-04-25T07:03:42;-18471.00;;;6.05;100.00
28606;BME280;46498;49.968;7.754;2023-04-25T07:08:48;-18467.00;;;5.94;100.00
28606;BME280;46498;49.968;7.754;2023-04-25T07:13:50;-18480.00;;;6.36;100.00
28606;BME280;46498;49.968;7.754;2023-04-25T07:18:51;-18484.00;;;6.46;100.00
28606;BME280;46498;49.968;7.754;2023-04-25T07:23:53;-18501.00;;;7.00;100.00
28606;BME280;46498;49.968;7.754;2023-04-25T07:28:57;-18500.00;;;6.99;98.49
28606;BME280;46498;49.968;7.754;2023-04-25T07:33:59;-18501.00;;;7.01;99.58
28606;BME280;46498;49.968;7.754;2023-04-25T07:39:03;-18499.00;;;6.95;100.00
28606;BME280;46498;49.968;7.754;2023-04-25T07:44:04;-18504.00;;;7.11;97.58
28606;BME280;46498;49.968;7.754;2023-04-25T07:49:05;-18513.00;;;7.40;98.56
28606;BME280;46498;49.968;7.754;2023-04-25T07:54:08;-18515.00;;;7.44;98.01
28606;BME280;46498;49.968;7.754;2023-04-25T07:59:10;-18519.00;;;7.56;95.44
28606;BME280;46498;49.968;7.754;2023-04-25T08:04:12;-18515.00;;;7.44;98.62
28606;BME280;46498;49.968;7.754;2023-04-25T08:09:27;-18504.00;;;7.09;99.75
28606;BME280;46498;49.968;7.754;2023-04-25T08:14:30;-18507.00;;;7.18;100.00
28606;BME280;46498;49.968;7.754;2023-04-25T08:19:37;-18507.00;;;7.21;98.34
28606;BME280;46498;49.968;7.754;2023-04-25T08:24:38;-18503.00;;;7.08;100.00
28606;BME280;46498;49.968;7.754;2023-04-25T08:29:41;-18508.00;;;7.22;100.00
28606;BME280;46498;49.968;7.754;2023-04-25T08:34:43;-18517.00;;;7.51;100.00
28606;BME280;46498;49.968;7.754;2023-04-25T08:39:44;-18513.00;;;7.39;100.00
28606;BME280;46498;49.968;7.754;2023-04-25T08:45:01;-18525.00;;;7.77;100.00
28606;BME280;46498;49.968;7.754;2023-04-25T08:50:07;-18526.00;;;7.81;99.65
28606;BME280;46498;49.968;7.754;2023-04-25T08:55:09;-18535.00;;;8.06;99.76
28606;BME280;46498;49.968;7.754;2023-04-25T09:00:13;-18552.00;;;8.61;100.00
28606;BME280;46498;49.968;7.754;2023-04-25T09:05:17;-18556.00;;;8.73;95.54
28606;BME280;46498;49.968;7.754;2023-04-25T09:10:25;-18549.00;;;8.50;95.75
28606;BME280;46498;49.968;7.754;2023-04-25T09:15:27;-18549.00;;;8.53;97.57
28606;BME280;46498;49.968;7.754;2023-04-25T09:20:44;-18547.00;;;8.44;94.03
28606;BME280;46498;49.968;7.754;2023-04-25T09:26:07;-18540.00;;;8.24;91.87
28606;BME280;46498;49.968;7.754;2023-04-25T09:31:10;-18543.00;;;8.34;91.86
28606;BME280;46498;49.968;7.754;2023-04-25T09:36:18;-18533.00;;;8.03;91.54
28606;BME280;46498;49.968;7.754;2023-04-25T09:41:37;-18530.00;;;7.92;88.93
28606;BME280;46498;49.968;7.754;2023-04-25T09:46:39;-18529.00;;;7.89;90.66
28606;BME280;46498;49.968;7.754;2023-04-25T09:51:57;-18524.00;;;7.73;88.42
28606;BME280;46498;49.968;7.754;2023-04-25T09:57:10;-18528.00;;;7.84;91.97
28606;BME280;46498;49.968;7.754;2023-04-25T10:02:15;-18554.00;;;8.66;93.84
28606;BME280;46498;49.968;7.754;2023-04-25T10:07:18;-18573.00;;;9.28;80.91
28606;BME280;46498;49.968;7.754;2023-04-25T10:12:21;-18565.00;;;9.02;82.08
28606;BME280;46498;49.968;7.754;2023-04-25T10:17:23;-18552.00;;;8.61;78.16
28606;BME280;46498;49.968;7.754;2023-04-25T10:22:32;-18539.00;;;8.20;80.05
28606;BME280;46498;49.968;7.754;2023-04-25T10:27:35;-18535.00;;;8.07;81.71
28606;BME280;46498;49.968;7.754;2023-04-25T10:32:38;-18544.00;;;8.35;82.57
28606;BME280;46498;49.968;7.754;2023-04-25T10:37:57;-18563.00;;;8.96;71.44
28606;BME280;46498;49.968;7.754;2023-04-25T10:43:33;-18575.00;;;9.33;70.55
28606;BME280;46498;49.968;7.754;2023-04-25T10:48:34;-18575.00;;;9.34;68.63
28606;BME280;46498;49.968;7.754;2023-04-25T10:53:35;-18571.00;;;9.21;72.05
28606;BME280;46498;49.968;7.754;2023-04-25T10:58:36;-18559.00;;;8.83;73.55
28606;BME280;46498;49.968;7.754;2023-04-25T11:03:42;-18552.00;;;8.62;75.21
28606;BME280;46498;49.968;7.754;2023-04-25T11:08:49;-18545.00;;;8.39;77.95
28606;BME280;46498;49.968;7.754;2023-04-25T11:13:51;-18542.00;;;8.30;76.10
28606;BME280;46498;49.968;7.754;2023-04-25T11:18:51;-18542.00;;;8.28;76.37
28606;BME280;46498;49.968;7.754;2023-04-25T11:23:54;-18536.00;;;8.12;82.55
28606;BME280;46498;49.968;7.754;2023-04-25T11:28:59;-18538.00;;;8.18;79.97
28606;BME280;46498;49.968;7.754;2023-04-25T11:34:01;-18547.00;;;8.44;75.05
28606;BME280;46498;49.968;7.754;2023-04-25T11:39:03;-18573.00;;;9.26;71.55
28606;BME280;46498;49.968;7.754;2023-04-25T11:44:05;-18569.00;;;9.15;65.38
28606;BME280;46498;49.968;7.754;2023-04-25T11:49:06;-18549.00;;;8.51;64.36
28606;BME280;46498;49.968;7.754;2023-04-25T11:54:06;-18546.00;;;8.42;69.07
28606;BME280;46498;49.968;7.754;2023-04-25T11:59:07;-18538.00;;;8.16;66.58
28606;BME280;46498;49.968;7.754;2023-04-25T12:04:20;-18533.00;;;8.03;64.63
28606;BME280;46498;49.968;7.754;2023-04-25T12:09:30;-18541.00;;;8.26;64.62
28606;BME280;46498;49.968;7.754;2023-04-25T12:14:33;-18559.00;;;8.84;61.08
28606;BME280;46498;49.968;7.754;2023-04-25T12:19:35;-18566.00;;;9.05;64.73
28606;BME280;46498;49.968;7.754;2023-04-25T12:24:36;-18568.00;;;9.12;61.45
28606;BME280;46498;49.968;7.754;2023-04-25T12:29:52;-18570.00;;;9.16;61.04
28606;BME280;46498;49.968;7.754;2023-04-25T12:34:53;-18572.00;;;9.25;57.67
28606;BME280;46498;49.968;7.754;2023-04-25T12:39:54;-18570.00;;;9.18;63.58
28606;BME280;46498;49.968;7.754;2023-04-25T12:44:55;-18591.00;;;9.85;56.73
28606;BME280;46498;49.968;7.754;2023-04-25T12:49:57;-18604.00;;;10.25;58.54
28606;BME280;46498;49.968;7.754;2023-04-25T12:54:58;-18618.00;;;10.67;52.76
28606;BME280;46498;49.968;7.754;2023-04-25T12:59:59;-18613.00;;;10.54;49.03
28606;BME280;46498;49.968;7.754;2023-04-25T13:04:59;-18629.00;;;11.01;51.48
28606;BME280;46498;49.968;7.754;2023-04-25T13:10:01;-18631.00;;;11.08;50.05
28606;BME280;46498;49.968;7.754;2023-04-25T13:15:03;-18627.00;;;10.96;49.51
28606;BME280;46498;49.968;7.754;2023-04-25T13:20:06;-18616.00;;;10.62;51.00
28606;BME280;46498;49.968;7.754;2023-04-25T13:25:09;-18600.00;;;10.12;51.01
28606;BME280;46498;49.968;7.754;2023-04-25T13:30:10;-18589.00;;;9.78;50.14
28606;BME280;46498;49.968;7.754;2023-04-25T13:35:12;-18582.00;;;9.54;53.66
28606;BME280;46498;49.968;7.754;2023-04-25T13:40:14;-18566.00;;;9.04;53.18
28606;BME280;46498;49.968;7.754;2023-04-25T13:45:15;-18567.00;;;9.07;54.63
28606;BME280;46498;49.968;7.754;2023-04-25T13:50:16;-18574.00;;;9.30;54.76
28606;BME280;46498;49.968;7.754;2023-04-25T13:55:17;-18578.00;;;9.41;57.24
28606;BME280;46498;49.968;7.754;2023-04-25T14:00:19;-18578.00;;;9.41;56.58
28606;BME280;46498;49.968;7.754;2023-04-25T14:05:20;-18574.00;;;9.31;51.42
28606;BME280;46498;49.968;7.754;2023-04-25T14:10:21;-18568.00;;;9.10;51.20
28606;BME280;46498;49.968;7.754;2023-04-25T14:15:22;-18556.00;;;8.73;51.25
28606;BME280;46498;49.968;7.754;2023-04-25T14:20:23;-18562.00;;;8.92;52.50
28606;BME280;46498;49.968;7.754;2023-04-25T14:25:25;-18572.00;;;9.24;51.92
28606;BME280;46498;49.968;7.754;2023-04-25T14:30:26;-18574.00;;;9.30;50.51
28606;BME280;46498;49.968;7.754;2023-04-25T14:35:27;-18583.00;;;9.58;50.04
28606;BME280;46498;49.968;7.754;2023-04-25T14:40:28;-18601.00;;;10.16;48.49
28606;BME280;46498;49.968;7.754;2023-04-25T14:45:29;-18594.00;;;9.91;51.23
28606;BME280;46498;49.968;7.754;2023-04-25T14:50:30;-18583.00;;;9.58;51.87
28606;BME280;46498;49.968;7.754;2023-04-25T14:55:31;-18572.00;;;9.25;52.75
28606;BME280;46498;49.968;7.754;2023-04-25T15:00:32;-18561.00;;;8.89;55.34
28606;BME280;46498;49.968;7.754;2023-04-25T15:05:34;-18558.00;;;8.79;54.82
28606;BME280;46498;49.968;7.754;2023-04-25T15:10:35;-18563.00;;;8.96;57.17
28606;BME280;46498;49.968;7.754;2023-04-25T15:15:35;-18557.00;;;8.76;53.35
28606;BME280;46498;49.968;7.754;2023-04-25T15:20:36;-18562.00;;;8.92;57.12
28606;BME280;46498;49.968;7.754;2023-04-25T15:25:37;-18563.00;;;8.95;54.22
28606;BME280;46498;49.968;7.754;2023-04-25T15:30:38;-18563.00;;;8.96;53.16
28606;BME280;46498;49.968;7.754;2023-04-25T15:35:39;-18559.00;;;8.83;50.89
28606;BME280;46498;49.968;7.754;2023-04-25T15:40:40;-18560.00;;;8.85;51.78
28606;BME280;46498;49.968;7.754;2023-04-25T15:45:41;-18560.00;;;8.86;49.43
28606;BME280;46498;49.968;7.754;2023-04-25T15:50:42;-18560.00;;;8.85;47.74
28606;BME280;46498;49.968;7.754;2023-04-25T15:55:43;-18563.00;;;8.94;48.94
28606;BME280;46498;49.968;7.754;2023-04-25T16:00:44;-18567.00;;;9.09;49.19
28606;BME280;46498;49.968;7.754;2023-04-25T16:05:48;-18573.00;;;9.28;47.97
28606;BME280;46498;49.968;7.754;2023-04-25T16:10:50;-18562.00;;;8.94;47.01
28606;BME280;46498;49.968;7.754;2023-04-25T16:15:50;-18547.00;;;8.45;48.89
28606;BME280;46498;49.968;7.754;2023-04-25T16:20:52;-18536.00;;;8.09;47.85
28606;BME280;46498;49.968;7.754;2023-04-25T16:25:53;-18538.00;;;8.17;51.00
28606;BME280;46498;49.968;7.754;2023-04-25T16:30:55;-18537.00;;;8.13;52.17
28606;BME280;46498;49.968;7.754;2023-04-25T16:35:55;-18534.00;;;8.04;52.24
28606;BME280;46498;49.968;7.754;2023-04-25T16:40:57;-18529.00;;;7.87;54.06
28606;BME280;46498;49.968;7.754;2023-04-25T16:45:58;-18525.00;;;7.78;54.32
28606;BME280;46498;49.968;7.754;2023-04-25T16:50:59;-18528.00;;;7.85;57.77
28606;BME280;46498;49.968;7.754;2023-04-25T16:56:00;-18524.00;;;7.73;57.15
28606;BME280;46498;49.968;7.754;2023-04-25T17:01:01;-18527.00;;;7.83;59.18
28606;BME280;46498;49.968;7.754;2023-04-25T17:06:02;-18530.00;;;7.91;59.02
28606;BME280;46498;49.968;7.754;2023-04-25T17:11:03;-18521.00;;;7.62;57.75
28606;BME280;46498;49.968;7.754;2023-04-25T17:16:06;-18523.00;;;7.70;60.80
28606;BME280;46498;49.968;7.754;2023-04-25T17:21:07;-18523.00;;;7.71;60.65
28606;BME280;46498;49.968;7.754;2023-04-25T17:26:08;-18529.00;;;7.88;61.49
28606;BME280;46498;49.968;7.754;2023-04-25T17:31:09;-18528.00;;;7.86;62.91
28606;BME280;46498;49.968;7.754;2023-04-25T17:36:10;-18524.00;;;7.73;62.70
28606;BME280;46498;49.968;7.754;2023-04-25T17:41:11;-18517.00;;;7.51;63.66
28606;BME280;46498;49.968;7.754;2023-04-25T17:46:14;-18516.00;;;7.49;64.19
28606;BME280;46498;49.968;7.754;2023-04-25T17:51:15;-18520.00;;;7.59;65.14
28606;BME280;46498;49.968;7.754;2023-04-25T17:56:16;-18516.00;;;7.48;61.45
28606;BME280;46498;49.968;7.754;2023-04-25T18:01:28;-18508.00;;;7.24;63.06
28606;BME280;46498;49.968;7.754;2023-04-25T18:06:29;-18501.00;;;6.99;63.11
28606;BME280;46498;49.968;7.754;2023-04-25T18:11:32;-18498.00;;;6.91;66.09
28606;BME280;46498;49.968;7.754;2023-04-25T18:16:33;-18494.00;;;6.79;63.73
28606;BME280;46498;49.968;7.754;2023-04-25T18:21:35;-18491.00;;;6.69;66.58
28606;BME280;46498;49.968;7.754;2023-04-25T18:26:35;-18489.00;;;6.62;65.34
28606;BME280;46498;49.968;7.754;2023-04-25T18:31:37;-18489.00;;;6.62;66.16
28606;BME280;46498;49.968;7.754;2023-04-25T18:36:39;-18485.00;;;6.51;66.54
28606;BME280;46498;49.968;7.754;2023-04-25T18:41:40;-18484.00;;;6.49;67.52
28606;BME280;46498;49.968;7.754;2023-04-25T18:46:56;-18479.00;;;6.33;68.74
28606;BME280;46498;49.968;7.754;2023-04-25T18:51:57;-18475.00;;;6.19;69.57
28606;BME280;46498;49.968;7.754;2023-04-25T18:56:58;-18473.00;;;6.12;69.93
28606;BME280;46498;49.968;7.754;2023-04-25T19:02:01;-18475.00;;;6.19;68.89
28606;BME280;46498;49.968;7.754;2023-04-25T19:07:02;-18472.00;;;6.11;69.66
28606;BME280;46498;49.968;7.754;2023-04-25T19:12:04;-18472.00;;;6.11;69.89
28606;BME280;46498;49.968;7.754;2023-04-25T19:17:05;-18470.00;;;6.02;69.28
28606;BME280;46498;49.968;7.754;2023-04-25T19:22:06;-18464.00;;;5.86;70.28
28606;BME280;46498;49.968;7.754;2023-04-25T19:27:07;-18457.00;;;5.62;72.31
28606;BME280;46498;49.968;7.754;2023-04-25T19:32:08;-18451.00;;;5.44;74.76
28606;BME280;46498;49.968;7.754;2023-04-25T19:37:09;-18449.00;;;5.39;73.44
28606;BME280;46498;49.968;7.754;2023-04-25T19:42:10;-18444.00;;;5.23;74.75
28606;BME280;46498;49.968;7.754;2023-04-25T19:47:10;-18442.00;;;5.16;76.55
28606;BME280;46498;49.968;7.754;2023-04-25T19:52:12;-18439.00;;;5.07;76.27
28606;BME280;46498;49.968;7.754;2023-04-25T19:57:14;-18437.00;;;5.01;77.77
28606;BME280;46498;49.968;7.754;2023-04-25T20:02:15;-18438.00;;;5.04;79.03
28606;BME280;46498;49.968;7.754;2023-04-25T20:07:18;-18435.00;;;4.95;80.13
28606;BME280;46498;49.968;7.754;2023-04-25T20:12:23;-18434.00;;;4.90;80.18
28606;BME280;46498;49.968;7.754;2023-04-25T20:17:24;-18435.00;;;4.95;79.17
28606;BME280;46498;49.968;7.754;2023-04-25T20:22:25;-18434.00;;;4.92;78.82
28606;BME280;46498;49.968;7.754;2023-04-25T20:27:28;-18434.00;;;4.90;79.74
28606;BME280;46498;49.968;7.754;2023-04-25T20:32:29;-18440.00;;;5.10;82.82
28606;BME280;46498;49.968;7.754;2023-04-25T20:37:34;-18433.00;;;4.88;80.00
28606;BME280;46498;49.968;7.754;2023-04-25T20:42:35;-18426.00;;;4.66;80.29
28606;BME280;46498;49.968;7.754;2023-04-25T20:47:40;-18422.00;;;4.53;81.69
28606;BME280;46498;49.968;7.754;2023-04-25T20:52:42;-18419.00;;;4.43;81.55
28606;BME280;46498;49.968;7.754;2023-04-25T20:57:43;-18418.00;;;4.39;83.45
28606;BME280;46498;49.968;7.754;2023-04-25T21:02:44;-18411.00;;;4.17;84.98
28606;BME280;46498;49.968;7.754;2023-04-25T21:07:49;-18406.00;;;4.04;85.82
28606;BME280;46498;49.968;7.754;2023-04-25T21:12:52;-18404.00;;;3.97;87.03
28606;BME280;46498;49.968;7.754;2023-04-25T21:17:53;-18406.00;;;4.03;87.50
28606;BME280;46498;49.968;7.754;2023-04-25T21:22:54;-18403.00;;;3.94;88.15
28606;BME280;46498;49.968;7.754;2023-04-25T21:27:55;-18400.00;;;3.85;88.85
28606;BME280;46498;49.968;7.754;2023-04-25T21:32:56;-18403.00;;;3.95;89.11
28606;BME280;46498;49.968;7.754;2023-04-25T21:37:57;-18405.00;;;4.01;88.88
28606;BME280;46498;49.968;7.754;2023-04-25T21:42:59;-18403.00;;;3.95;89.09
28606;BME280;46498;49.968;7.754;2023-04-25T21:48:00;-18400.00;;;3.85;89.45
28606;BME280;46498;49.968;7.754;2023-04-25T21:53:01;-18398.00;;;3.78;89.53
28606;BME280;46498;49.968;7.754;2023-04-25T21:58:03;-18396.00;;;3.71;90.09
28606;BME280;46498;49.968;7.754;2023-04-25T22:03:04;-18397.00;;;3.74;90.03
28606;BME280;46498;49.968;7.754;2023-04-25T22:08:05;-18395.00;;;3.70;90.61
28606;BME280;46498;49.968;7.754;2023-04-25T22:13:06;-18392.00;;;3.60;91.09
28606;BME280;46498;49.968;7.754;2023-04-25T22:18:07;-18393.00;;;3.63;91.39
28606;BME280;46498;49.968;7.754;2023-04-25T22:23:08;-18394.00;;;3.64;91.39
28606;BME280;46498;49.968;7.754;2023-04-25T22:28:09;-18393.00;;;3.61;91.42
28606;BME280;46498;49.968;7.754;2023-04-25T22:33:12;-18391.00;;;3.56;91.83
28606;BME280;46498;49.968;7.754;2023-04-25T22:38:12;-18390.00;;;3.52;91.85
28606;BME280;46498;49.968;7.754;2023-04-25T22:43:14;-18388.00;;;3.46;92.52
28606;BME280;46498;49.968;7.754;2023-04-25T22:48:15;-18387.00;;;3.45;92.09
28606;BME280;46498;49.968;7.754;2023-04-25T22:53:16;-18387.00;;;3.45;91.94
28606;BME280;46498;49.968;7.754;2023-04-25T22:58:17;-18388.00;;;3.46;91.62
28606;BME280;46498;49.968;7.754;2023-04-25T23:03:18;-18391.00;;;3.57;91.18
28606;BME280;46498;49.968;7.754;2023-04-25T23:08:19;-18393.00;;;3.61;91.44
28606;BME280;46498;49.968;7.754;2023-04-25T23:13:20;-18394.00;;;3.64;92.37
28606;BME280;46498;49.968;7.754;2023-04-25T23:18:21;-18391.00;;;3.55;92.76
28606;BME280;46498;49.968;7.754;2023-04-25T23:23:22;-18390.00;;;3.54;92.61
28606;BME280;46498;49.968;7.754;2023-04-25T23:28:23;-18384.00;;;3.33;93.72
28606;BME280;46498;49.968;7.754;2023-04-25T23:33:24;-18385.00;;;3.37;93.84
28606;BME280;46498;49.968;7.754;2023-04-25T23:38:24;-18385.00;;;3.37;93.47
28606;BME280;46498;49.968;7.754;2023-04-25T23:43:26;-18384.00;;;3.35;93.76
28606;BME280;46498;49.968;7.754;2023-04-25T23:48:27;-18382.00;;;3.26;94.05
28606;BME280;46498;49.968;7.754;2023-04-25T23:53:27;-18379.00;;;3.18;94.59
28606;BME280;46498;49.968;7.754;2023-04-25T23:58:28;-18378.00;;;3.16;93.86
